createdAt,value
2023-10-08T06:37:45.593Z,52.85
2023-10-08T06:40:15.793Z,53.26
2023-10-08T06:42:46.103Z,52.82
2023-10-08T06:45:14.919Z,53.46
2023-10-08T06:47:43.929Z,53.34
2023-10-08T06:58:16.976Z,53.57
2023-10-08T07:00:47.275Z,54.17
2023-10-08T07:03:16.874Z,55.10
2023-10-08T07:05:48.465Z,54.90
2023-10-08T07:08:15.140Z,55.14
2023-10-08T07:10:41.613Z,55.25
2023-10-08T07:13:09.046Z,55.16
2023-10-08T07:15:35.901Z,55.47
2023-10-08T07:18:02.369Z,55.77
2023-10-08T07:20:28.823Z,56.19
2023-10-08T07:22:55.254Z,56.55
2023-10-08T07:25:24.555Z,56.70
2023-10-08T07:27:50.960Z,56.39
2023-10-08T07:30:17.395Z,55.82
2023-10-08T07:32:43.922Z,55.45
2023-10-08T07:35:10.391Z,55.24
2023-10-08T07:37:36.848Z,55.35
2023-10-08T07:40:03.443Z,56.08
2023-10-08T07:42:29.992Z,55.79
2023-10-08T07:44:56.580Z,54.80
2023-10-08T07:47:23.252Z,55.39
2023-10-08T07:49:49.846Z,55.56
2023-10-08T07:52:16.430Z,55.36
2023-10-08T07:54:42.984Z,54.93
2023-10-08T07:57:09.542Z,54.94
2023-10-08T07:59:37.316Z,55.35
2023-10-08T08:02:05.762Z,54.69
2023-10-08T08:04:32.383Z,54.32
2023-10-08T08:06:59.008Z,54.74
2023-10-08T08:09:25.540Z,54.77
2023-10-08T08:11:52.210Z,54.44
2023-10-08T08:14:18.771Z,54.38
2023-10-08T08:16:45.620Z,53.73
2023-10-08T08:19:12.225Z,53.53
2023-10-08T08:21:38.765Z,52.98
2023-10-08T08:24:05.653Z,52.86
2023-10-08T08:26:32.367Z,52.78
2023-10-08T08:29:03.735Z,53.24
2023-10-08T08:31:30.688Z,52.90
2023-10-08T08:33:57.357Z,52.72
2023-10-08T08:36:25.120Z,52.32
2023-10-08T08:38:52.425Z,52.30
2023-10-08T08:41:19.881Z,52.89
2023-10-08T08:43:53.179Z,53.78
2023-10-08T08:46:19.839Z,53.01
2023-10-08T08:48:49.822Z,53.30
2023-10-08T08:51:19.538Z,52.87
2023-10-08T08:53:46.087Z,53.01
2023-10-08T08:56:13.529Z,52.71
2023-10-08T08:58:41.854Z,52.67
2023-10-08T09:01:12.768Z,52.74
2023-10-08T09:03:39.621Z,53.18
2023-10-08T09:06:06.737Z,52.09
2023-10-08T09:08:37.381Z,52.07
2023-10-08T09:11:04.297Z,51.88
2023-10-08T09:13:33.070Z,52.09
2023-10-08T09:16:08.421Z,51.63
2023-10-08T09:18:36.038Z,51.17
2023-10-08T09:21:20.954Z,51.40
2023-10-08T09:23:53.472Z,51.43
2023-10-08T09:26:24.533Z,51.02
2023-10-08T09:28:51.421Z,50.88
2023-10-08T09:31:18.452Z,50.77
2023-10-08T09:33:55.528Z,50.42
2023-10-08T09:36:23.460Z,50.45
2023-10-08T09:38:51.842Z,50.19
2023-10-08T09:41:20.252Z,50.17
2023-10-08T09:43:48.730Z,49.92
2023-10-08T09:46:24.283Z,50.20
2023-10-08T09:48:52.834Z,50.09
2023-10-08T09:51:19.614Z,50.35
2023-10-08T09:54:04.511Z,50.39
2023-10-08T09:56:32.757Z,50.32
2023-10-08T09:59:00.206Z,50.31
2023-10-08T10:01:28.217Z,50.13
2023-10-08T10:03:56.040Z,50.43
2023-10-08T10:06:23.671Z,50.01
2023-10-08T10:08:50.402Z,49.75
2023-10-08T10:11:17.222Z,49.85
2023-10-08T10:13:46.121Z,49.35
2023-10-08T10:16:14.963Z,50.89
2023-10-08T10:18:45.407Z,51.09
2023-10-08T10:21:11.959Z,50.88
2023-10-08T10:23:49.446Z,51.29
2023-10-08T10:26:23.543Z,50.94
2023-10-08T10:29:08.663Z,51.04
2023-10-08T10:31:35.835Z,49.91
2023-10-08T10:34:06.765Z,49.79
2023-10-08T10:36:34.550Z,50.00
2023-10-08T10:39:01.147Z,50.96
2023-10-08T10:41:27.749Z,50.83
2023-10-08T10:43:54.395Z,50.25
2023-10-08T10:46:20.953Z,50.08
2023-10-08T10:48:47.732Z,50.05
2023-10-08T10:51:14.782Z,50.28
2023-10-08T10:53:41.862Z,49.56
2023-10-08T10:56:08.565Z,49.28
2023-10-08T10:58:35.164Z,49.61
2023-10-08T11:01:01.762Z,50.53
2023-10-08T11:03:28.635Z,50.85
2023-10-08T11:06:00.997Z,50.33
2023-10-08T11:08:28.695Z,51.30
2023-10-08T11:10:55.535Z,50.50
2023-10-08T11:13:25.312Z,50.49
2023-10-08T11:15:52.306Z,50.69
2023-10-08T11:18:22.494Z,50.49
2023-10-08T11:20:51.315Z,50.45
2023-10-08T11:23:38.467Z,50.46
2023-10-08T11:26:06.265Z,50.67
2023-10-08T11:28:37.863Z,51.01
2023-10-08T11:31:05.871Z,50.60
2023-10-08T11:33:32.605Z,50.98
2023-10-08T11:36:01.930Z,50.28
2023-10-08T11:38:39.374Z,50.60
2023-10-08T11:41:16.884Z,50.22
2023-10-08T11:43:43.450Z,49.70
2023-10-08T11:46:10.037Z,49.85
2023-10-08T11:48:36.711Z,49.46
2023-10-08T11:51:03.424Z,49.60
2023-10-08T11:53:30.074Z,50.48
2023-10-08T11:55:56.863Z,50.26
2023-10-08T11:58:23.950Z,50.31
2023-10-08T12:00:50.609Z,50.08
2023-10-08T12:03:24.064Z,50.04
2023-10-08T12:09:44.048Z,48.66
2023-10-08T12:12:42.841Z,47.99
2023-10-08T12:15:29.369Z,48.40
2023-10-08T12:18:38.366Z,48.37
2023-10-08T12:39:31.656Z,42.13
2023-10-08T12:42:04.660Z,41.80
2023-10-08T12:44:32.407Z,41.35
2023-10-08T12:47:00.070Z,41.81
2023-10-08T12:49:30.729Z,41.54
2023-10-08T12:52:05.327Z,41.45
2023-10-08T12:54:41.480Z,41.10
2023-10-08T12:57:12.015Z,40.50
2023-10-08T12:59:38.473Z,39.98
2023-10-08T13:02:05.055Z,38.77
2023-10-08T13:04:31.488Z,38.96
2023-10-08T13:06:59.872Z,37.82
2023-10-08T13:09:26.547Z,36.95
2023-10-08T13:11:53.611Z,37.18
2023-10-08T13:14:20.243Z,36.88
2023-10-08T13:16:47.113Z,36.50
2023-10-08T13:19:14.067Z,36.64
2023-10-08T13:21:40.788Z,36.13
2023-10-08T13:24:07.767Z,35.55
2023-10-08T13:26:34.382Z,34.99
2023-10-08T13:29:01.416Z,35.81
2023-10-08T13:31:28.676Z,36.27
2023-10-08T13:33:55.235Z,35.40
2023-10-08T13:36:21.875Z,34.79
2023-10-08T13:38:48.701Z,34.41
2023-10-08T13:41:15.640Z,34.73
2023-10-08T13:43:47.273Z,34.68
2023-10-08T13:46:16.341Z,34.28
2023-10-08T13:48:44.908Z,34.47
2023-10-08T13:51:11.383Z,34.84
2023-10-08T13:53:38.226Z,35.01
2023-10-08T13:56:04.861Z,34.98
2023-10-08T13:58:32.221Z,34.53
2023-10-08T14:00:58.827Z,34.59
2023-10-08T14:03:25.378Z,34.39
2023-10-08T14:05:51.903Z,34.18
2023-10-08T14:08:21.584Z,33.21
2023-10-08T14:10:47.980Z,32.99
2023-10-08T14:13:14.355Z,32.80
2023-10-08T14:15:40.839Z,32.09
2023-10-08T14:18:07.380Z,31.21
2023-10-08T14:20:33.810Z,30.40
2023-10-08T14:23:00.209Z,30.05
2023-10-08T14:25:27.811Z,29.70
2023-10-08T14:27:54.667Z,29.77
2023-10-08T14:30:21.373Z,29.11
2023-10-08T14:32:48.515Z,28.74
2023-10-08T14:35:15.603Z,28.56
2023-10-08T14:37:42.175Z,28.28
2023-10-08T14:40:09.053Z,27.84
2023-10-08T14:42:35.577Z,28.44
2023-10-08T14:45:02.430Z,27.60
2023-10-08T14:47:29.059Z,27.65
2023-10-08T14:49:55.705Z,27.49
2023-10-08T14:52:22.458Z,27.57
2023-10-08T14:54:51.265Z,27.47
2023-10-08T14:57:17.877Z,27.35
2023-10-08T14:59:44.528Z,27.75
2023-10-08T15:02:11.144Z,27.59
2023-10-08T15:04:38.400Z,27.22
2023-10-08T15:07:05.103Z,27.36
2023-10-08T15:09:31.691Z,27.32
2023-10-08T15:11:58.419Z,27.15
2023-10-08T15:14:25.113Z,27.27
2023-10-08T15:16:51.794Z,26.89
2023-10-08T15:19:21.732Z,26.50
2023-10-08T15:21:49.133Z,26.57
2023-10-08T15:24:15.743Z,26.71
2023-10-08T15:26:42.361Z,26.70
2023-10-08T15:29:08.940Z,27.34
2023-10-08T15:31:35.511Z,27.50
2023-10-08T15:34:02.049Z,27.38
2023-10-08T15:36:28.661Z,27.36
2023-10-08T15:38:55.298Z,27.27
2023-10-08T15:41:21.889Z,27.70
2023-10-08T15:43:52.153Z,27.71
2023-10-08T15:46:19.281Z,27.80
2023-10-08T15:48:46.022Z,27.81
2023-10-08T15:51:13.080Z,28.16
2023-10-08T15:53:39.757Z,28.78
2023-10-08T15:56:06.516Z,29.43
2023-10-08T15:58:33.079Z,29.25
2023-10-08T16:00:59.668Z,29.74
2023-10-08T16:03:26.402Z,30.20
2023-10-08T16:05:53.504Z,30.55
2023-10-08T16:08:20.091Z,30.64
2023-10-08T16:10:46.631Z,30.98
2023-10-08T16:13:13.273Z,31.25
2023-10-08T16:15:39.904Z,32.39
2023-10-08T16:18:07.119Z,32.76
2023-10-08T16:20:33.752Z,33.23
2023-10-08T16:23:00.305Z,33.71
2023-10-08T16:25:26.891Z,34.25
2023-10-08T16:27:54.296Z,34.76
2023-10-08T16:30:24.041Z,34.99
2023-10-08T16:32:52.848Z,35.44
2023-10-08T16:35:20.611Z,35.78
2023-10-08T16:37:48.343Z,36.70
2023-10-08T16:40:14.913Z,37.83
2023-10-08T16:42:41.561Z,38.73
2023-10-08T16:45:08.604Z,40.54
2023-10-08T16:47:38.142Z,42.10
2023-10-08T16:50:05.354Z,43.14
2023-10-08T16:52:32.043Z,43.32
2023-10-08T16:54:58.551Z,43.66
2023-10-08T16:57:25.206Z,44.49
2023-10-08T16:59:51.741Z,45.75
2023-10-08T17:02:18.388Z,45.91
2023-10-08T17:04:45.240Z,46.92
2023-10-08T17:07:11.779Z,47.26
2023-10-08T17:09:38.337Z,47.36
2023-10-08T17:12:05.148Z,47.70
2023-10-08T17:14:31.716Z,48.30
2023-10-08T17:16:58.440Z,48.77
2023-10-08T17:19:24.961Z,49.15
2023-10-08T17:21:51.569Z,49.57
2023-10-08T17:24:18.351Z,49.85
2023-10-08T17:26:45.661Z,50.53
2023-10-08T17:29:12.571Z,50.64
2023-10-08T17:31:39.297Z,50.95
2023-10-08T17:34:07.346Z,51.67
2023-10-08T17:36:35.418Z,51.93
2023-10-08T17:39:03.547Z,52.38
2023-10-08T17:41:30.229Z,52.70
2023-10-08T17:43:56.889Z,53.45
2023-10-08T17:46:23.635Z,53.65
2023-10-08T17:48:50.294Z,53.90
2023-10-08T17:51:17.136Z,54.40
2023-10-08T17:53:43.968Z,54.83
2023-10-08T17:56:10.543Z,55.22
2023-10-08T17:58:38.412Z,55.54
2023-10-08T18:01:14.920Z,55.77
2023-10-08T18:03:42.022Z,55.75
2023-10-08T18:06:08.631Z,56.68
2023-10-08T18:08:35.175Z,56.90
2023-10-08T18:11:01.550Z,56.67
2023-10-08T18:13:28.847Z,56.97
2023-10-08T18:15:55.408Z,57.17
2023-10-08T18:18:21.927Z,57.67
2023-10-08T18:20:48.523Z,57.90
2023-10-08T18:23:15.225Z,58.03
2023-10-08T18:25:41.709Z,58.40
2023-10-08T18:28:08.286Z,58.62
2023-10-08T18:30:35.042Z,58.72
2023-10-08T18:33:01.635Z,59.22
2023-10-08T18:35:28.368Z,59.51
2023-10-08T18:37:55.021Z,59.87
2023-10-08T18:40:21.615Z,59.96
2023-10-08T18:42:48.237Z,60.08
2023-10-08T18:45:15.134Z,60.27
2023-10-08T18:47:41.936Z,60.09
2023-10-08T18:50:15.520Z,60.38
2023-10-08T18:52:42.894Z,60.35
2023-10-08T18:55:09.974Z,60.08
2023-10-08T18:57:37.572Z,60.11
2023-10-08T19:00:05.376Z,60.67
2023-10-08T19:02:32.095Z,60.30
2023-10-08T19:04:58.842Z,59.67
2023-10-08T19:07:25.506Z,60.63
2023-10-08T19:09:56.671Z,60.38
2023-10-08T19:12:23.601Z,60.10
2023-10-08T19:14:50.155Z,60.18
2023-10-08T19:17:16.762Z,60.19
2023-10-08T19:19:43.434Z,60.14
2023-10-08T19:22:09.956Z,59.31
2023-10-08T19:24:36.544Z,59.18
2023-10-08T19:27:03.528Z,58.74
2023-10-08T19:29:30.144Z,58.52
2023-10-08T19:31:58.878Z,58.32
2023-10-08T19:34:25.843Z,58.60
2023-10-08T19:36:52.649Z,58.48
2023-10-08T19:39:21.446Z,58.71
2023-10-08T19:41:49.524Z,58.30
2023-10-08T19:44:19.773Z,58.54
2023-10-08T19:47:23.174Z,58.13
2023-10-08T19:50:03.596Z,58.91
2023-10-08T19:52:30.501Z,58.55
2023-10-08T19:55:02.501Z,58.85
2023-10-08T19:57:30.394Z,58.18
2023-10-08T19:59:57.639Z,58.41
2023-10-08T20:02:24.220Z,58.45
2023-10-08T20:04:50.730Z,58.09
2023-10-08T20:07:17.410Z,58.22
2023-10-08T20:09:44.037Z,58.35
2023-10-08T20:12:10.598Z,58.84
2023-10-08T20:14:37.480Z,59.06
2023-10-08T20:17:04.304Z,58.96
2023-10-08T20:19:32.719Z,58.53
2023-10-08T20:21:59.383Z,58.62
2023-10-08T20:24:28.576Z,58.83
2023-10-08T20:26:55.193Z,58.24
2023-10-08T20:32:06.814Z,58.43
2023-10-08T20:34:33.318Z,58.30
2023-10-08T20:36:59.948Z,57.95
2023-10-08T20:39:26.478Z,57.95
2023-10-08T20:41:53.109Z,58.09
2023-10-08T20:44:24.871Z,57.92
2023-10-08T20:46:54.292Z,57.81
2023-10-08T20:49:27.023Z,57.86
2023-10-08T20:51:56.880Z,57.55
2023-10-08T20:54:23.627Z,57.80
2023-10-08T20:56:55.000Z,57.62
2023-10-08T20:59:45.835Z,58.19
2023-10-08T21:02:12.885Z,58.11
2023-10-08T21:04:39.718Z,58.01
2023-10-08T21:07:09.614Z,58.06
2023-10-08T21:09:36.247Z,57.88
2023-10-08T21:12:02.924Z,58.19
2023-10-08T21:14:29.868Z,57.82
2023-10-08T21:16:56.630Z,58.05
2023-10-08T21:19:24.212Z,57.93
2023-10-08T21:21:53.175Z,58.29
2023-10-08T21:24:20.004Z,57.67
2023-10-08T21:26:46.673Z,58.34
2023-10-08T21:29:13.593Z,58.36
2023-10-08T21:31:42.455Z,58.84
2023-10-08T21:34:09.177Z,58.49
2023-10-08T21:36:35.893Z,58.23
2023-10-08T21:39:02.548Z,59.04
2023-10-08T21:41:29.181Z,58.67
2023-10-08T21:43:55.777Z,58.68
2023-10-08T21:46:22.357Z,58.55
2023-10-08T21:48:48.949Z,58.83
2023-10-08T21:51:15.716Z,59.04
2023-10-08T21:53:42.495Z,58.92
2023-10-08T21:56:09.909Z,59.42
2023-10-08T21:58:36.537Z,59.05
2023-10-08T22:01:03.198Z,59.22
2023-10-08T22:03:30.106Z,59.34
2023-10-08T22:05:56.806Z,59.68
2023-10-08T22:08:23.406Z,60.03
2023-10-08T22:10:49.966Z,60.18
2023-10-08T22:13:16.582Z,60.12
2023-10-08T22:15:43.255Z,59.88
2023-10-08T22:18:09.919Z,59.87
2023-10-08T22:20:37.028Z,60.03
2023-10-08T22:23:05.244Z,59.97
2023-10-08T22:25:33.642Z,59.94
2023-10-08T22:28:01.455Z,60.23
2023-10-08T22:30:28.316Z,60.13
2023-10-08T22:32:56.129Z,60.68
2023-10-08T22:35:23.326Z,60.51
2023-10-08T22:37:49.998Z,60.58
2023-10-08T22:40:16.624Z,60.72
2023-10-08T22:42:43.170Z,60.34
2023-10-08T22:45:10.195Z,60.45
2023-10-08T22:47:36.733Z,60.26
2023-10-08T22:50:03.437Z,59.64
2023-10-08T22:52:30.036Z,59.65
2023-10-08T22:54:56.597Z,59.93
2023-10-08T22:57:23.131Z,59.85
2023-10-08T22:59:49.910Z,59.72
2023-10-08T23:02:19.276Z,59.91
2023-10-08T23:04:45.984Z,59.61
2023-10-08T23:07:12.609Z,59.34
2023-10-08T23:09:39.298Z,59.33
2023-10-08T23:12:06.315Z,59.39
2023-10-08T23:14:32.931Z,58.93
2023-10-08T23:16:59.706Z,59.02
2023-10-08T23:19:26.328Z,58.72
2023-10-08T23:21:53.546Z,58.64
2023-10-08T23:24:20.496Z,58.59
2023-10-08T23:26:47.061Z,58.34
2023-10-08T23:29:13.670Z,58.43
2023-10-08T23:31:40.280Z,57.90
2023-10-08T23:34:06.992Z,58.39
2023-10-08T23:36:33.652Z,58.33
2023-10-08T23:39:02.214Z,58.39
2023-10-08T23:41:28.920Z,58.56
2023-10-08T23:43:55.577Z,58.51
2023-10-08T23:46:26.201Z,58.98
2023-10-08T23:48:52.923Z,58.51
2023-10-08T23:51:21.535Z,58.90
2023-10-08T23:53:48.133Z,58.95
2023-10-08T23:56:14.753Z,59.20
2023-10-08T23:58:41.404Z,59.05
